Time;durP1;ratioP1;P1;durP2;ratioP2;P2;SDS_P1;SDS_P2;PMS_P1;PMS_P2;Temp;Humidity;BMP_temperature;BMP_pressure;BME280_temperature;BME280_humidity;BME280_pressure;Samples;Min_cycle;Max_cycle;Signal;HPM_P1;HPM_P2
2022/12/03 00:08:07;;;;;;;2.57;1.60;;;;;;;;;;21128225;28;20219;-65
2022/12/03 00:18:09;;;;;;;2.07;1.23;;;;;;;;;;21109840;28;20288;-65
2022/12/03 00:28:10;;;;;;;3.07;1.30;;;;;;;;;;21103433;28;20233;-65
2022/12/03 00:38:13;;;;;;;3.07;1.50;;;;;;;;;;21091985;22;20281;-67
2022/12/03 00:48:16;;;;;;;2.23;1.43;;;;;;;;;;21041083;28;20286;-67
2022/12/03 00:58:17;;;;;;;3.63;1.73;;;3.40;99.90;;;;;;21023534;28;20298;-67
2022/12/03 01:08:20;;;;;;;1.80;1.40;;;;;;;;;;21038468;28;20212;-67
2022/12/03 01:18:22;;;;;;;4.63;0.93;;;;;;;;;;21022282;28;20228;-67
2022/12/03 01:28:23;;;;;;;2.03;1.13;;;;;;;;;;21020885;28;20269;-67
2022/12/03 01:38:25;;;;;;;4.70;2.13;;;;;;;;;;21037252;28;20216;-67
2022/12/03 01:48:29;;;;;;;2.77;1.93;;;;;;;;;;21020001;28;20266;-67
2022/12/03 01:58:31;;;;;;;2.23;1.17;;;;;;;;;;21035677;28;20282;-67
2022/12/03 02:08:37;;;;;;;1.97;1.23;;;3.40;99.90;;;;;;21019219;28;20660;-67
2022/12/03 02:18:39;;;;;;;1.83;1.40;;;;;;;;;;21018732;28;20212;-67
2022/12/03 02:28:41;;;;;;;2.60;1.57;;;;;;;;;;21035057;28;20573;-67
2022/12/03 02:38:44;;;;;;;2.00;1.00;;;;;;;;;;21023988;28;20216;-67
2022/12/03 02:48:46;;;;;;;1.70;1.10;;;;;;;;;;21034364;28;20200;-67
2022/12/03 02:58:49;;;;;;;2.83;1.47;;;;;;;;;;21008710;28;20225;-67
2022/12/03 03:08:51;;;;;;;2.67;1.70;;;3.40;99.90;;;;;;21003500;28;20213;-67
2022/12/03 03:18:53;;;;;;;2.00;1.30;;;;;;;;;;20968086;28;20221;-68
2022/12/03 03:28:56;;;;;;;1.93;1.17;;;;;;;;;;21010866;28;20212;-66
2022/12/03 03:38:58;;;;;;;2.53;1.67;;;3.30;99.90;;;;;;21029649;28;20224;-68
2022/12/03 03:49:01;;;;;;;2.70;1.57;;;3.30;99.90;;;;;;21011506;28;20761;-67
2022/12/03 03:59:03;;;;;;;3.73;1.77;;;;;;;;;;21060857;28;20286;-68
2022/12/03 04:09:05;;;;;;;3.30;1.80;;;;;;;;;;21027940;28;20625;-68
2022/12/03 04:19:07;;;;;;;3.07;1.70;;;;;;;;;;21043583;28;20232;-68
2022/12/03 04:29:09;;;;;;;2.83;1.63;;;;;;;;;;21043866;28;20200;-68
2022/12/03 04:39:11;;;;;;;4.20;1.87;;;;;;;;;;21024749;28;20261;-68
2022/12/03 04:49:13;;;;;;;3.47;1.93;;;;;;;;;;21040530;28;20216;-68
2022/12/03 04:59:15;;;;;;;3.07;2.30;;;;;;;;;;21023389;28;20712;-68
2022/12/03 05:09:17;;;;;;;3.47;1.83;;;;;;;;;;21039572;28;20229;-68
2022/12/03 05:19:19;;;;;;;3.40;2.00;;;;;;;;;;21021822;28;20643;-68
2022/12/03 05:29:21;;;;;;;3.27;2.20;;;;;;;;;;21006771;28;20216;-68
2022/12/03 05:39:25;;;;;;;3.50;2.00;;;;;;;;;;20973578;28;20240;-68
2022/12/03 05:49:27;;;;;;;3.70;2.00;;;;;;;;;;21020076;28;20262;-69
2022/12/03 05:59:28;;;;;;;3.80;1.83;;;;;;;;;;20967834;28;20229;-68
2022/12/03 06:09:30;;;;;;;4.00;1.90;;;;;;;;;;20936498;28;20668;-68
2022/12/03 06:19:32;;;;;;;3.10;2.10;;;3.10;99.90;;;;;;20946431;28;20221;-68
2022/12/03 06:29:34;;;;;;;9.97;3.77;;;;;;;;;;20962979;28;20209;-68
2022/12/03 06:39:36;;;;;;;4.57;2.07;;;;;;;;;;21022749;28;20787;-68
2022/12/03 06:49:38;;;;;;;5.07;2.70;;;;;;;;;;21063210;28;20242;-68
2022/12/03 06:59:40;;;;;;;3.83;2.47;;;;;;;;;;21046367;28;20220;-68
2022/12/03 07:09:42;;;;;;;3.57;2.47;;;;;;;;;;21046691;28;20269;-68
2022/12/03 07:19:44;;;;;;;2.70;2.40;;;;;;;;;;21099927;22;20607;-85
2022/12/03 07:29:47;;;;;;;3.57;2.53;;;;;;;;;;21154592;27;20208;-84
2022/12/03 07:39:56;;;;;;;2.90;2.03;;;;;;;;;;21082998;28;20258;-85
2022/12/03 07:50:04;;;;;;;4.57;2.43;;;;;;;;;;21031435;28;20224;-85
2022/12/03 08:00:26;;;;;;;4.90;2.67;;;;;;;;;;21067110;28;20228;-85
2022/12/03 08:10:39;;;;;;;3.43;2.47;;;;;;;;;;21035648;28;20690;-84
2022/12/03 08:20:42;;;;;;;4.13;2.63;;;;;;;;;;21049131;28;20289;-84
2022/12/03 08:30:46;;;;;;;6.53;2.83;;;;;;;;;;21064226;28;20282;-85
2022/12/03 08:40:50;;;;;;;5.07;2.47;;;;;;;;;;21091304;27;20284;-85
2022/12/03 08:50:53;;;;;;;4.10;2.90;;;;;;;;;;20972498;28;20205;-84
2022/12/03 09:00:57;;;;;;;5.10;2.83;;;;;;;;;;20929717;28;20237;-85
2022/12/03 09:11:00;;;;;;;3.47;2.30;;;;;;;;;;21016817;28;20555;-84
2022/12/03 09:21:02;;;;;;;3.40;2.10;;;;;;;;;;21001698;28;20693;-84
2022/12/03 09:31:04;;;;;;;5.30;2.63;;;;;;;;;;21048250;28;20716;-84
2022/12/03 09:41:09;;;;;;;4.33;2.40;;;;;;;;;;21036541;28;20240;-85
2022/12/03 09:51:11;;;;;;;4.77;3.17;;;;;;;;;;20964073;28;20631;-84
2022/12/03 10:01:14;;;;;;;4.73;2.47;;;;;;;;;;21006286;28;20765;-84
2022/12/03 10:11:18;;;;;;;3.00;2.43;;;;;;;;;;21015577;28;20212;-84
2022/12/03 10:21:23;;;;;;;3.87;2.57;;;;;;;;;;21031697;28;20232;-84
2022/12/03 10:31:35;;;;;;;4.63;2.70;;;4.10;99.90;;;;;;21030940;28;20705;-84
2022/12/03 10:41:39;;;;;;;4.73;3.03;;;;;;;;;;21060720;28;20258;-87
2022/12/03 10:51:50;;;;;;;3.87;2.10;;;;;;;;;;21102606;28;20216;-86
2022/12/03 11:02:01;;;;;;;4.53;2.97;;;;;;;;;;21005495;28;20236;-86
2022/12/03 11:12:16;;;;;;;4.40;2.80;;;;;;;;;;21025456;28;20200;-85
2022/12/03 11:22:26;;;;;;;4.50;2.90;;;;;;;;;;21034239;28;20255;-85
2022/12/03 11:32:43;;;;;;;5.33;3.03;;;;;;;;;;21051667;28;20265;-85
2022/12/03 11:42:46;;;;;;;3.53;2.33;;;;;;;;;;21065669;28;20235;-85
2022/12/03 11:52:54;;;;;;;4.13;2.27;;;;;;;;;;21033494;28;20216;-85
2022/12/03 12:02:57;;;;;;;4.67;2.60;;;;;;;;;;21077024;28;20216;-85
2022/12/03 12:13:03;;;;;;;4.50;2.93;;;;;;;;;;21012168;28;20262;-85
2022/12/03 12:23:21;;;;;;;3.43;2.27;;;;;;;;;;21057138;28;20285;-84
2022/12/03 12:33:26;;;;;;;3.53;2.50;;;;;;;;;;21054203;28;20212;-84
2022/12/03 12:43:30;;;;;;;3.53;2.23;;;;;;;;;;21059034;28;20212;-85
2022/12/03 12:53:34;;;;;;;4.03;2.97;;;;;;;;;;21061633;28;20599;-85
2022/12/03 13:03:37;;;;;;;5.60;3.33;;;;;;;;;;21044060;28;20669;-85
2022/12/03 13:13:41;;;;;;;3.90;2.50;;;4.30;99.90;;;;;;21078076;28;20290;-85
2022/12/03 13:23:43;;;;;;;4.30;2.47;;;;;;;;;;21042962;28;20589;-85
2022/12/03 13:33:45;;;;;;;4.63;2.70;;;;;;;;;;21044490;28;20638;-85
2022/12/03 13:43:48;;;;;;;3.93;2.63;;;;;;;;;;21045791;28;20221;-85
2022/12/03 13:53:50;;;;;;;4.37;2.40;;;;;;;;;;21097966;28;20228;-85
2022/12/03 14:03:58;;;;;;;5.03;2.63;;;;;;;;;;21069790;28;20220;-85
2022/12/03 14:14:06;;;;;;;5.73;3.30;;;;;;;;;;21047144;28;20220;-85
2022/12/03 14:24:11;;;;;;;4.70;3.10;;;;;;;;;;21045432;28;20594;-85
2022/12/03 14:34:13;;;;;;;6.77;3.60;;;;;;;;;;21018025;28;20229;-85
2022/12/03 14:44:15;;;;;;;4.67;2.90;;;;;;;;;;21046738;28;20273;-85
2022/12/03 14:54:18;;;;;;;5.80;3.10;;;;;;;;;;21067016;28;20243;-85
2022/12/03 15:04:19;;;;;;;5.53;3.70;;;;;;;;;;21094891;27;20212;-85
2022/12/03 15:14:21;;;;;;;4.83;3.03;;;;;;;;;;21047568;28;20759;-85
2022/12/03 15:24:36;;;;;;;5.23;3.23;;;;;;;;;;21065829;28;20689;-84
2022/12/03 15:46:30;;;;;;;4.50;2.57;;;;;;;;;;21076883;28;20217;-85
2022/12/03 15:56:48;;;;;;;4.20;2.37;;;;;;;;;;21047539;28;20232;-84
2022/12/03 16:07:45;;;;;;;4.77;2.87;;;;;;;;;;21036894;27;20213;-85
2022/12/03 16:18:45;;;;;;;4.23;3.00;;;;;;;;;;21060080;28;20220;-84
2022/12/03 16:29:17;;;;;;;4.70;2.93;;;;;;;;;;21038735;28;20273;-84
2022/12/03 16:39:26;;;;;;;4.87;2.93;;;;;;;;;;21061154;28;20224;-84
2022/12/03 16:49:32;;;;;;;3.70;2.60;;;;;;;;;;21077373;27;20293;-83
2022/12/03 16:59:39;;;;;;;6.10;3.77;;;;;;;;;;21041391;28;20759;-84
2022/12/03 17:20:55;;;;;;;6.43;3.80;;;;;;;;;;20670673;28;20620;-84
2022/12/03 17:32:07;;;;;;;;;;;;;;;;;;;;;
2022/12/03 17:43:28;;;;;;;4.60;2.43;;;4.20;99.90;;;;;;20988744;28;20228;-84
2022/12/03 17:53:56;;;;;;;4.13;2.60;;;;;;;;;;20900404;22;20237;-68
2022/12/03 18:03:58;;;;;;;4.43;2.60;;;;;;;;;;20896971;28;20551;-68
2022/12/03 18:14:00;;;;;;;6.97;3.73;;;;;;;;;;20894024;28;20708;-69
2022/12/03 18:24:04;;;;;;;5.77;3.20;;;4.00;99.90;;;;;;20896058;28;20210;-68
2022/12/03 18:34:05;;;;;;;5.40;3.43;;;;;;;;;;20898273;28;20218;-68
2022/12/03 18:44:09;;;;;;;4.83;2.50;;;;;;;;;;20891156;28;20225;-68
2022/12/03 18:54:12;;;;;;;4.07;2.83;;;4.10;99.90;;;;;;20885687;28;20229;-68
2022/12/03 19:04:14;;;;;;;4.53;2.60;;;;;;;;;;20884711;28;20210;-68
2022/12/03 19:14:16;;;;;;;4.80;2.67;;;;;;;;;;20893190;28;20249;-68
2022/12/03 19:24:17;;;;;;;3.90;2.17;;;;;;;;;;21173161;22;20227;-68
2022/12/03 19:34:19;;;;;;;5.03;2.33;;;3.90;99.90;;;;;;21239858;27;20596;-68
2022/12/03 19:44:21;;;;;;;4.30;2.90;;;;;;;;;;21232381;27;20255;-71
2022/12/03 19:54:23;;;;;;;4.73;3.13;;;;;;;;;;21199135;27;20296;-67
2022/12/03 20:04:25;;;;;;;9.00;5.20;;;;;;;;;;21232158;27;20211;-68
2022/12/03 20:14:26;;;;;;;4.73;3.03;;;;;;;;;;21216300;27;20211;-68
2022/12/03 20:24:28;;;;;;;4.67;2.50;;;;;;;;;;21205131;27;20298;-68
2022/12/03 20:34:32;;;;;;;4.43;2.43;;;;;;;;;;21234445;27;20223;-68
2022/12/03 20:44:36;;;;;;;5.13;2.33;;;;;;;;;;21238876;27;20266;-68
2022/12/03 20:54:37;;;;;;;4.70;2.83;;;;;;;;;;21239370;27;20268;-69
2022/12/03 21:04:39;;;;;;;4.60;2.57;;;;;;;;;;21236495;27;20227;-67
2022/12/03 21:14:41;;;;;;;5.07;3.07;;;;;;;;;;21239209;27;20580;-69
2022/12/03 21:24:43;;;;;;;5.60;3.10;;;;;;;;;;21238818;27;20249;-67
2022/12/03 21:34:45;;;;;;;5.43;3.07;;;;;;;;;;21239494;27;20279;-66
2022/12/03 21:44:47;;;;;;;4.40;2.60;;;;;;;;;;21237273;27;20252;-67
2022/12/03 21:54:51;;;;;;;3.33;2.30;;;3.90;99.90;;;;;;21238154;27;20215;-66
2022/12/03 22:04:53;;;;;;;4.80;2.80;;;;;;;;;;21234395;27;20267;-67
2022/12/03 22:14:56;;;;;;;4.20;2.60;;;;;;;;;;21184680;27;20567;-66
2022/12/03 22:24:57;;;;;;;4.20;1.93;;;;;;;;;;21206930;28;20224;-68
2022/12/03 22:34:59;;;;;;;3.77;2.33;;;;;;;;;;21152039;28;20571;-66
2022/12/03 22:45:01;;;;;;;3.87;2.57;;;;;;;;;;21132989;28;20573;-67
2022/12/03 22:55:03;;;;;;;4.13;2.53;;;;;;;;;;21136372;28;20267;-66
2022/12/03 23:05:05;;;;;;;5.10;3.30;;;;;;;;;;21166306;28;20565;-66
2022/12/03 23:15:07;;;;;;;3.83;2.23;;;;;;;;;;21165461;28;20219;-67
2022/12/03 23:25:11;;;;;;;6.00;3.20;;;;;;;;;;21163491;28;20296;-67
2022/12/03 23:35:13;;;;;;;4.03;2.20;;;;;;;;;;21162969;28;20385;-66
2022/12/03 23:45:14;;;;;;;4.47;2.30;;;;;;;;;;21163265;28;20200;-67
2022/12/03 23:55:16;;;;;;;4.20;2.13;;;;;;;;;;21127596;28;20309;-67
